createdAt,value
2018-12-07T00:00:25.073Z,5.97
2018-12-07T00:03:12.973Z,5.60
2018-12-07T00:06:00.938Z,5.23
2018-12-07T00:08:48.971Z,5.67
2018-12-07T00:11:36.872Z,5.00
2018-12-07T00:14:24.703Z,5.20
2018-12-07T00:17:12.554Z,5.60
2018-12-07T00:20:00.465Z,5.30
2018-12-07T00:25:42.311Z,5.97
2018-12-07T00:28:30.187Z,5.77
2018-12-07T00:31:18.086Z,6.00
2018-12-07T00:34:06.044Z,5.47
2018-12-07T00:36:53.931Z,5.23
2018-12-07T00:39:41.799Z,4.73
2018-12-07T00:42:29.626Z,4.90
2018-12-07T00:45:17.579Z,4.17
2018-12-07T00:48:05.551Z,4.77
2018-12-07T00:50:53.404Z,4.23
2018-12-07T00:53:41.299Z,4.83
2018-12-07T00:56:29.145Z,5.37
2018-12-07T00:59:17.031Z,5.33
2018-12-07T01:02:04.927Z,5.33
2018-12-07T01:04:52.822Z,6.37
2018-12-07T01:07:40.803Z,5.87
2018-12-07T01:10:28.650Z,6.50
2018-12-07T01:13:16.495Z,6.10
2018-12-07T01:16:04.294Z,6.63
2018-12-07T01:18:52.197Z,6.70
2018-12-07T01:21:40.175Z,6.70
2018-12-07T01:24:28.073Z,6.33
2018-12-07T01:27:16.018Z,7.20
2018-12-07T01:30:25.402Z,6.43
2018-12-07T01:33:13.200Z,6.87
2018-12-07T01:36:01.055Z,6.40
2018-12-07T01:38:48.950Z,7.40
2018-12-07T01:41:36.745Z,6.77
2018-12-07T01:44:24.658Z,7.80
2018-12-07T01:47:12.462Z,6.80
2018-12-07T01:50:00.288Z,7.85
2018-12-07T01:52:48.252Z,7.30
2018-12-07T01:55:36.116Z,8.30
2018-12-07T01:58:24.018Z,7.50
2018-12-07T02:01:11.990Z,7.67
2018-12-07T02:03:59.912Z,7.80
2018-12-07T02:06:47.752Z,7.37
2018-12-07T02:09:36.085Z,7.63
2018-12-07T02:12:24.060Z,7.73
2018-12-07T02:15:12.842Z,7.42
2018-12-07T02:18:00.766Z,7.37
2018-12-07T02:20:48.580Z,7.33
2018-12-07T02:23:36.485Z,6.93
2018-12-07T02:26:24.289Z,6.77
2018-12-07T02:29:12.122Z,6.70
2018-12-07T02:32:00.010Z,6.43
2018-12-07T02:34:48.246Z,6.28
2018-12-07T02:37:36.165Z,5.97
2018-12-07T02:40:24.044Z,5.43
2018-12-07T02:43:11.927Z,5.43
2018-12-07T02:45:59.781Z,5.33
2018-12-07T02:48:47.589Z,5.60
2018-12-07T02:51:35.478Z,4.77
2018-12-07T02:54:23.387Z,5.20
2018-12-07T02:57:11.304Z,4.30
2018-12-07T02:59:59.147Z,4.90
2018-12-07T03:02:47.107Z,4.10
2018-12-07T03:05:34.968Z,4.43
2018-12-07T03:08:22.871Z,3.93
2018-12-07T03:11:10.763Z,3.77
2018-12-07T03:13:58.665Z,3.30
2018-12-07T03:16:46.555Z,3.60
2018-12-07T03:19:34.413Z,3.30
2018-12-07T03:22:22.307Z,3.37
2018-12-07T03:25:10.215Z,3.20
2018-12-07T03:27:58.038Z,3.10
2018-12-07T03:30:46.014Z,3.27
2018-12-07T03:33:33.820Z,3.65
2018-12-07T03:36:21.842Z,3.20
2018-12-07T03:39:09.705Z,3.40
2018-12-07T03:41:57.595Z,3.10
2018-12-07T03:44:45.482Z,3.27
2018-12-07T03:47:33.336Z,3.43
2018-12-07T03:50:21.133Z,3.37
2018-12-07T03:53:09.119Z,3.33
2018-12-07T03:55:57.010Z,3.17
2018-12-07T03:58:44.868Z,3.12
2018-12-07T04:01:32.792Z,2.70
2018-12-07T04:04:20.703Z,3.03
2018-12-07T04:07:08.597Z,3.17
2018-12-07T04:09:56.400Z,2.87
2018-12-07T04:12:44.317Z,2.80
2018-12-07T04:18:26.215Z,2.90
2018-12-07T04:21:14.114Z,2.60
2018-12-07T04:24:01.989Z,2.40
2018-12-07T04:26:49.895Z,3.50
2018-12-07T04:29:37.801Z,2.87
2018-12-07T04:32:25.618Z,3.00
2018-12-07T04:35:13.507Z,3.00
2018-12-07T04:38:01.358Z,2.80
2018-12-07T04:40:49.209Z,2.80
2018-12-07T04:43:37.049Z,2.90
2018-12-07T04:46:25.206Z,3.03
2018-12-07T04:49:13.112Z,3.20
2018-12-07T04:52:01.050Z,2.90
2018-12-07T04:54:48.947Z,2.73
2018-12-07T04:57:36.838Z,3.13
2018-12-07T05:00:24.790Z,2.70
2018-12-07T05:03:12.776Z,3.00
2018-12-07T05:06:00.618Z,3.10
2018-12-07T05:08:48.527Z,3.23
2018-12-07T05:11:36.423Z,3.43
2018-12-07T05:14:23.898Z,3.67
2018-12-07T05:17:11.736Z,3.70
2018-12-07T05:19:59.612Z,3.77
2018-12-07T05:22:47.440Z,3.93
2018-12-07T05:25:35.317Z,3.45
2018-12-07T05:28:23.213Z,4.40
2018-12-07T05:31:11.040Z,4.20
2018-12-07T05:33:58.941Z,4.00
2018-12-07T05:36:46.724Z,3.83
2018-12-07T05:39:34.550Z,3.50
2018-12-07T05:42:22.506Z,3.97
2018-12-07T05:45:10.409Z,4.17
2018-12-07T05:51:05.231Z,4.28
2018-12-07T05:53:53.192Z,4.23
2018-12-07T05:56:40.987Z,3.98
2018-12-07T05:59:28.882Z,4.28
2018-12-07T06:02:16.764Z,4.20
2018-12-07T06:05:05.025Z,5.00
2018-12-07T06:10:45.927Z,4.30
2018-12-07T06:13:33.757Z,4.60
2018-12-07T06:16:21.660Z,4.33
2018-12-07T06:19:09.649Z,4.10
2018-12-07T06:21:57.478Z,4.10
2018-12-07T06:24:45.326Z,3.80
2018-12-07T06:27:33.133Z,3.40
2018-12-07T06:30:21.060Z,4.80
2018-12-07T06:33:08.922Z,4.37
2018-12-07T06:35:56.934Z,4.40
2018-12-07T06:38:44.793Z,4.30
2018-12-07T06:41:32.632Z,4.37
2018-12-07T06:44:20.428Z,3.97
2018-12-07T06:47:08.405Z,4.35
2018-12-07T06:49:56.253Z,6.73
2018-12-07T06:52:44.158Z,4.33
2018-12-07T06:55:32.405Z,4.62
2018-12-07T06:58:20.261Z,4.53
2018-12-07T07:01:08.170Z,4.90
2018-12-07T07:03:56.101Z,4.40
2018-12-07T07:06:43.952Z,4.33
2018-12-07T07:09:32.276Z,5.42
2018-12-07T07:12:20.095Z,5.47
2018-12-07T07:15:08.072Z,4.73
2018-12-07T07:17:55.979Z,5.10
2018-12-07T07:20:43.801Z,5.70
2018-12-07T07:23:31.686Z,5.43
2018-12-07T07:26:19.696Z,5.93
2018-12-07T07:29:08.334Z,6.75
2018-12-07T07:31:56.159Z,6.50
2018-12-07T07:34:44.172Z,6.30
2018-12-07T07:37:32.076Z,6.87
2018-12-07T07:40:19.950Z,7.20
2018-12-07T07:43:07.871Z,7.07
2018-12-07T07:45:55.727Z,7.22
2018-12-07T07:48:43.631Z,6.97
2018-12-07T07:51:31.436Z,6.60
2018-12-07T07:54:21.163Z,6.85
2018-12-07T07:57:09.881Z,5.77
2018-12-07T07:59:57.759Z,5.47
2018-12-07T08:02:45.700Z,5.43
2018-12-07T08:05:33.566Z,3.87
2018-12-07T08:08:21.482Z,4.30
2018-12-07T08:11:09.282Z,3.42
2018-12-07T08:13:57.122Z,3.67
2018-12-07T08:16:45.009Z,3.63
2018-12-07T08:19:33.345Z,3.42
2018-12-07T08:22:21.129Z,3.50
2018-12-07T08:25:09.125Z,3.50
2018-12-07T08:27:57.036Z,3.40
2018-12-07T08:30:25.280Z,3.55
2018-12-07T08:33:13.155Z,3.00
2018-12-07T08:36:01.050Z,3.13
2018-12-07T08:38:48.945Z,3.50
2018-12-07T08:44:32.014Z,3.37
2018-12-07T08:47:19.925Z,3.13
2018-12-07T08:50:27.629Z,3.33
2018-12-07T08:53:15.440Z,2.90
2018-12-07T08:56:03.239Z,2.87
2018-12-07T08:58:51.154Z,3.30
2018-12-07T09:04:32.960Z,2.57
2018-12-07T09:07:20.955Z,2.53
2018-12-07T09:10:08.909Z,2.40
2018-12-07T09:15:50.429Z,2.60
2018-12-07T09:22:08.974Z,2.62
2018-12-07T09:24:56.798Z,2.50
2018-12-07T09:27:44.731Z,2.47
2018-12-07T09:30:32.541Z,2.30
2018-12-07T09:33:20.510Z,2.10
2018-12-07T09:36:08.346Z,2.43
2018-12-07T09:38:56.152Z,2.40
2018-12-07T09:41:44.324Z,2.40
2018-12-07T09:44:32.176Z,2.50
2018-12-07T09:47:20.045Z,2.20
2018-12-07T09:50:08.015Z,2.30
2018-12-07T09:52:55.864Z,2.17
2018-12-07T09:55:43.729Z,2.60
2018-12-07T09:58:31.541Z,2.50
2018-12-07T10:01:19.516Z,2.23
2018-12-07T10:04:07.337Z,2.37
2018-12-07T10:06:56.271Z,2.30
2018-12-07T10:09:44.064Z,2.62
2018-12-07T10:12:32.072Z,2.73
2018-12-07T10:15:19.986Z,2.53
2018-12-07T10:21:00.976Z,2.30
2018-12-07T10:26:42.077Z,2.60
2018-12-07T10:29:30.053Z,2.67
2018-12-07T10:32:17.932Z,2.90
2018-12-07T10:35:05.908Z,2.70
2018-12-07T10:37:53.899Z,2.30
2018-12-07T10:40:41.840Z,2.87
2018-12-07T10:43:29.663Z,2.30
2018-12-07T10:46:17.505Z,2.50
2018-12-07T10:49:05.480Z,2.33
2018-12-07T10:51:53.292Z,2.77
2018-12-07T10:54:41.242Z,3.00
2018-12-07T10:57:29.135Z,2.50
2018-12-07T11:03:35.030Z,2.23
2018-12-07T11:06:42.360Z,2.47
2018-12-07T11:12:58.426Z,3.20
2018-12-07T11:16:05.662Z,2.50
2018-12-07T11:19:12.815Z,2.13
2018-12-07T11:22:20.117Z,2.50
2018-12-07T11:25:07.763Z,1.90
2018-12-07T11:28:15.009Z,2.07
2018-12-07T11:31:22.264Z,2.00
2018-12-07T11:37:08.972Z,2.10
2018-12-07T11:39:56.827Z,1.87
2018-12-07T11:42:44.852Z,1.80
2018-12-07T11:45:32.881Z,1.90
2018-12-07T11:48:20.737Z,1.87
2018-12-07T11:51:08.668Z,1.47
2018-12-07T11:53:56.642Z,1.50
2018-12-07T11:56:44.641Z,1.53
2018-12-07T11:59:32.619Z,1.33
2018-12-07T12:05:14.614Z,1.30
2018-12-07T12:08:02.528Z,1.33
2018-12-07T12:10:50.386Z,1.50
2018-12-07T12:13:38.282Z,1.70
2018-12-07T12:16:26.193Z,1.50
2018-12-07T12:19:14.017Z,1.30
2018-12-07T12:22:02.021Z,1.47
2018-12-07T12:24:49.873Z,1.47
2018-12-07T12:27:37.808Z,1.30
2018-12-07T12:30:25.688Z,1.30
2018-12-07T12:33:13.668Z,1.20
2018-12-07T12:36:01.602Z,1.17
2018-12-07T12:38:49.451Z,1.30
2018-12-07T12:41:37.339Z,1.50
2018-12-07T12:44:25.264Z,1.30
2018-12-07T12:47:13.068Z,0.98
2018-12-07T12:52:54.831Z,1.22
2018-12-07T12:55:42.741Z,1.20
2018-12-07T12:58:30.561Z,1.00
2018-12-07T13:01:18.418Z,1.20
2018-12-07T13:04:06.332Z,1.10
2018-12-07T13:06:54.164Z,0.90
2018-12-07T13:09:41.996Z,1.10
2018-12-07T13:12:30.582Z,1.10
2018-12-07T13:15:18.486Z,1.00
2018-12-07T13:18:06.507Z,1.10
2018-12-07T13:20:54.388Z,0.80
2018-12-07T13:23:42.353Z,1.00
2018-12-07T13:26:30.290Z,1.07
2018-12-07T13:29:18.238Z,1.10
2018-12-07T13:32:06.190Z,0.85
2018-12-07T13:34:54.163Z,0.90
2018-12-07T13:37:42.678Z,1.10
2018-12-07T13:40:30.648Z,1.00
2018-12-07T13:43:18.629Z,1.00
2018-12-07T13:52:07.068Z,0.70
2018-12-07T13:54:55.083Z,0.90
2018-12-07T14:00:37.152Z,1.07
2018-12-07T14:03:25.465Z,1.00
2018-12-07T14:06:15.208Z,0.67
2018-12-07T14:09:26.459Z,0.70
2018-12-07T14:12:14.616Z,0.63
2018-12-07T14:18:19.492Z,0.70
2018-12-07T14:21:07.534Z,1.07
2018-12-07T14:23:55.460Z,0.73
2018-12-07T14:26:43.483Z,1.00
2018-12-07T14:32:40.441Z,0.70
2018-12-07T14:35:28.454Z,2.10
2018-12-07T14:38:16.823Z,0.70
2018-12-07T14:47:06.867Z,0.80
2018-12-07T14:49:56.774Z,0.60
2018-12-07T14:55:38.840Z,0.80
2018-12-07T14:58:26.935Z,0.70
2018-12-07T15:01:16.643Z,0.70
2018-12-07T15:04:04.679Z,0.90
2018-12-07T15:06:52.868Z,0.80
2018-12-07T15:09:42.883Z,1.10
2018-12-07T15:12:32.542Z,0.77
2018-12-07T15:15:20.875Z,0.90
2018-12-07T15:18:10.723Z,0.60
2018-12-07T15:21:00.565Z,0.90
2018-12-07T15:23:48.774Z,0.70
2018-12-07T15:29:45.651Z,1.10
2018-12-07T15:32:33.778Z,1.60
2018-12-07T15:41:10.292Z,0.80
2018-12-07T15:49:47.051Z,1.00
2018-12-07T15:52:34.969Z,1.10
2018-12-07T15:55:24.827Z,1.10
2018-12-07T16:01:14.697Z,1.03
2018-12-07T16:04:04.325Z,1.30
2018-12-07T16:06:52.349Z,1.00
2018-12-07T16:09:40.508Z,1.30
2018-12-07T16:12:30.397Z,1.50
2018-12-07T16:15:20.190Z,1.30
2018-12-07T16:18:10.215Z,1.20
2018-12-07T16:24:07.022Z,1.50
2018-12-07T16:29:51.409Z,1.50
2018-12-07T16:32:41.281Z,1.42
2018-12-07T16:35:29.359Z,2.20
2018-12-07T16:38:19.205Z,1.60
2018-12-07T16:41:08.874Z,2.07
2018-12-07T16:43:56.801Z,1.53
2018-12-07T16:46:44.886Z,1.27
2018-12-07T16:49:34.769Z,1.30
2018-12-07T16:55:18.165Z,1.93
2018-12-07T17:01:14.686Z,1.55
2018-12-07T17:04:02.747Z,1.50
2018-12-07T17:06:52.453Z,1.20
2018-12-07T17:09:40.429Z,1.30
2018-12-07T17:12:30.199Z,1.20
2018-12-07T17:15:18.155Z,1.40
2018-12-07T17:18:08.236Z,1.10
2018-12-07T17:20:58.107Z,1.50
2018-12-07T17:26:39.192Z,1.50
2018-12-07T17:29:27.145Z,1.13
2018-12-07T17:32:15.107Z,1.40
2018-12-07T17:35:03.287Z,1.30
2018-12-07T17:37:45.942Z,1.10
2018-12-07T17:46:36.289Z,1.43
2018-12-07T17:55:16.945Z,1.17
2018-12-07T17:58:06.594Z,1.30
2018-12-07T18:00:54.730Z,1.00
2018-12-07T18:03:44.532Z,1.13
2018-12-07T18:06:32.831Z,1.13
2018-12-07T18:09:22.519Z,1.20
2018-12-07T18:12:10.633Z,1.20
2018-12-07T18:15:00.132Z,1.20
2018-12-07T18:17:48.295Z,1.30
2018-12-07T18:20:38.210Z,1.30
2018-12-07T18:23:28.099Z,1.47
2018-12-07T18:26:17.931Z,1.17
2018-12-07T18:29:07.919Z,1.10
2018-12-07T18:31:57.534Z,1.40
2018-12-07T18:40:32.782Z,1.27
2018-12-07T18:43:22.865Z,1.30
2018-12-07T18:46:12.580Z,1.10
2018-12-07T18:49:02.700Z,1.03
2018-12-07T18:51:52.496Z,1.10
2018-12-07T18:54:42.590Z,1.50
2018-12-07T18:57:32.316Z,1.10
2018-12-07T19:00:22.209Z,1.52
2018-12-07T19:09:11.038Z,1.40
2018-12-07T19:12:00.944Z,1.40
2018-12-07T19:14:50.654Z,1.70
2018-12-07T19:17:40.532Z,1.40
2018-12-07T19:20:49.021Z,1.40
2018-12-07T19:29:43.835Z,1.63
2018-12-07T19:38:29.798Z,1.83
2018-12-07T20:03:28.660Z,2.20
2018-12-07T20:06:18.637Z,2.10
2018-12-07T20:09:01.763Z,2.47
2018-12-07T20:11:49.844Z,2.80
2018-12-07T20:14:38.110Z,2.77
2018-12-07T20:20:22.319Z,2.93
2018-12-07T20:23:10.647Z,3.12
2018-12-07T20:26:00.773Z,2.93
2018-12-07T20:37:46.306Z,3.20
2018-12-07T20:43:43.136Z,4.13
2018-12-07T20:46:33.016Z,3.57
2018-12-07T20:49:23.054Z,3.45
2018-12-07T20:52:12.795Z,3.63
2018-12-07T20:55:00.903Z,3.33
2018-12-07T21:04:19.575Z,3.17
2018-12-07T21:11:17.995Z,3.67
2018-12-07T21:14:27.949Z,4.37
2018-12-07T21:17:17.686Z,3.33
2018-12-07T21:23:23.167Z,3.53
2018-12-07T21:26:11.645Z,3.47
2018-12-07T21:29:01.619Z,3.60
2018-12-07T21:41:07.030Z,3.43
2018-12-07T21:43:55.285Z,3.08
2018-12-07T21:46:45.089Z,3.55
2018-12-07T21:52:50.222Z,3.35
2018-12-07T21:55:38.454Z,3.27
2018-12-07T21:58:26.685Z,3.57
2018-12-07T22:09:56.417Z,3.95
2018-12-07T22:12:46.226Z,3.70
2018-12-07T22:15:36.339Z,4.07
2018-12-07T22:18:26.722Z,3.90
2018-12-07T22:21:14.723Z,4.08
2018-12-07T22:24:02.902Z,4.50
2018-12-07T22:26:51.153Z,4.07
2018-12-07T22:29:41.047Z,4.60
2018-12-07T22:35:25.751Z,3.75
2018-12-07T22:38:13.904Z,4.00
2018-12-07T22:43:54.974Z,3.87
2018-12-07T22:46:43.021Z,3.50
2018-12-07T22:49:30.928Z,3.83
2018-12-07T22:55:28.127Z,3.73
2018-12-07T22:58:15.929Z,2.63
2018-12-07T23:01:03.946Z,2.80
2018-12-07T23:03:51.953Z,2.27
2018-12-07T23:06:39.941Z,2.20
2018-12-07T23:09:28.051Z,1.90
2018-12-07T23:12:16.030Z,2.60
2018-12-07T23:18:18.915Z,2.30
2018-12-07T23:21:06.844Z,2.10
2018-12-07T23:23:54.752Z,2.37
2018-12-07T23:26:42.727Z,2.40
2018-12-07T23:29:30.687Z,2.77
2018-12-07T23:35:25.587Z,2.50
2018-12-07T23:37:53.724Z,2.53
2018-12-07T23:46:30.967Z,2.87
2018-12-07T23:49:18.946Z,3.00
2018-12-07T23:52:06.812Z,3.67
2018-12-07T23:57:48.420Z,4.20
